Snoqualmie River: Snoqualmie Falls station

back to: Snoqualmie river
Snoqualmie Falls station Summary - (NOAA Hydrograph: SQUW1)
flood stage: 12.88 ft
Latest reading:
Wed11/20 12:25 pm 5.97 ft 2804 cfs (-132/hr)
Past 24hr max:
Tue11/19 01:50 pm 7.17 ft 4408 cfs
Forecasted crests: (published Wed 11/20/19 08:44 am)
Sun11/24 04:00 pm 8.74 ft 7144 cfs
Wed11/27 04:00 am 5.99 ft 2830 cfs

Snoqualmie Falls station Details

Latest Readings

Last 100 Readings:
Wed11/20 12:25 pm 5.97 ft 2804 cfs
Wed11/20 12:20 pm 5.98 ft 2815 cfs
Wed11/20 12:15 pm 5.98 ft 2815 cfs
Wed11/20 12:10 pm 5.99 ft 2827 cfs
Wed11/20 12:05 pm 6.01 ft 2851 cfs
Wed11/20 12:00 pm 6.0 ft 2839 cfs
Wed11/20 11:55 am 6.01 ft 2851 cfs
Wed11/20 11:50 am 6.0 ft 2839 cfs
Wed11/20 11:45 am 6.01 ft 2851 cfs
Wed11/20 11:40 am 6.01 ft 2851 cfs
Wed11/20 11:35 am 6.01 ft 2851 cfs
Wed11/20 11:30 am 6.02 ft 2863 cfs
Wed11/20 11:25 am 6.03 ft 2874 cfs
Wed11/20 11:20 am 6.03 ft 2874 cfs
Wed11/20 11:15 am 6.03 ft 2874 cfs
Wed11/20 11:10 am 6.03 ft 2874 cfs
Wed11/20 11:05 am 6.04 ft 2886 cfs
Wed11/20 11:00 am 6.04 ft 2886 cfs
Wed11/20 10:55 am 6.05 ft 2898 cfs
Wed11/20 10:50 am 6.05 ft 2898 cfs
Wed11/20 10:45 am 6.04 ft 2886 cfs
Wed11/20 10:40 am 6.06 ft 2910 cfs
Wed11/20 10:35 am 6.05 ft 2898 cfs
Wed11/20 10:30 am 6.06 ft 2910 cfs
Wed11/20 10:25 am 6.06 ft 2910 cfs
Wed11/20 10:20 am 6.04 ft 2886 cfs
Wed11/20 10:15 am 6.06 ft 2910 cfs
Wed11/20 10:10 am 6.08 ft 2934 cfs
Wed11/20 10:05 am 6.09 ft 2946 cfs
Wed11/20 10:00 am 6.08 ft 2934 cfs
Wed11/20 09:55 am 6.08 ft 2934 cfs
Wed11/20 09:50 am 6.1 ft 2958 cfs
Wed11/20 09:45 am 6.1 ft 2958 cfs
Wed11/20 09:40 am 6.09 ft 2946 cfs
Wed11/20 09:35 am 6.11 ft 2970 cfs
Wed11/20 09:30 am 6.11 ft 2970 cfs
Wed11/20 09:25 am 6.1 ft 2958 cfs
Wed11/20 09:20 am 6.11 ft 2970 cfs
Wed11/20 09:15 am 6.12 ft 2982 cfs
Wed11/20 09:10 am 6.12 ft 2982 cfs
Wed11/20 09:05 am 6.12 ft 2982 cfs
Wed11/20 09:00 am 6.12 ft 2982 cfs
Wed11/20 08:55 am 6.14 ft 3007 cfs
Wed11/20 08:50 am 6.13 ft 2994 cfs
Wed11/20 08:45 am 6.13 ft 2994 cfs
Wed11/20 08:40 am 6.13 ft 2994 cfs
Wed11/20 08:35 am 6.13 ft 2994 cfs
Wed11/20 08:30 am 6.14 ft 3007 cfs
Wed11/20 08:25 am 6.14 ft 3007 cfs
Wed11/20 08:20 am 6.15 ft 3019 cfs
Wed11/20 08:15 am 6.16 ft 3031 cfs
Wed11/20 08:10 am 6.15 ft 3019 cfs
Wed11/20 08:05 am 6.16 ft 3031 cfs
Wed11/20 08:00 am 6.17 ft 3043 cfs
Wed11/20 07:55 am 6.16 ft 3031 cfs
Wed11/20 07:50 am 6.17 ft 3043 cfs
Wed11/20 07:45 am 6.17 ft 3043 cfs
Wed11/20 07:40 am 6.18 ft 3055 cfs
Wed11/20 07:35 am 6.19 ft 3068 cfs
Wed11/20 07:30 am 6.18 ft 3055 cfs
Wed11/20 07:25 am 6.18 ft 3055 cfs
Wed11/20 07:20 am 6.19 ft 3068 cfs
Wed11/20 07:15 am 6.19 ft 3068 cfs
Wed11/20 07:10 am 6.21 ft 3092 cfs
Wed11/20 07:05 am 6.2 ft 3080 cfs
Wed11/20 07:00 am 6.21 ft 3092 cfs
Wed11/20 06:55 am 6.2 ft 3080 cfs
Wed11/20 06:50 am 6.21 ft 3092 cfs
Wed11/20 06:45 am 6.23 ft 3117 cfs
Wed11/20 06:40 am 6.22 ft 3105 cfs
Wed11/20 06:35 am 6.23 ft 3117 cfs
Wed11/20 06:30 am 6.24 ft 3130 cfs
Wed11/20 06:25 am 6.23 ft 3117 cfs
Wed11/20 06:20 am 6.25 ft 3142 cfs
Wed11/20 06:15 am 6.24 ft 3130 cfs
Wed11/20 06:10 am 6.25 ft 3142 cfs
Wed11/20 06:05 am 6.25 ft 3142 cfs
Wed11/20 06:00 am 6.25 ft 3142 cfs
Wed11/20 05:55 am 6.27 ft 3167 cfs
Wed11/20 05:50 am 6.26 ft 3154 cfs
Wed11/20 05:45 am 6.26 ft 3154 cfs
Wed11/20 05:40 am 6.27 ft 3167 cfs
Wed11/20 05:35 am 6.28 ft 3180 cfs
Wed11/20 05:30 am 6.29 ft 3192 cfs
Wed11/20 05:25 am 6.29 ft 3192 cfs
Wed11/20 05:20 am 6.29 ft 3192 cfs
Wed11/20 05:15 am 6.29 ft 3192 cfs
Wed11/20 05:10 am 6.3 ft 3205 cfs
Wed11/20 05:05 am 6.29 ft 3192 cfs
Wed11/20 05:00 am 6.3 ft 3205 cfs
Wed11/20 04:55 am 6.32 ft 3230 cfs
Wed11/20 04:50 am 6.29 ft 3192 cfs
Wed11/20 04:45 am 6.3 ft 3205 cfs
Wed11/20 04:40 am 6.29 ft 3192 cfs
Wed11/20 04:35 am 6.32 ft 3230 cfs
Wed11/20 04:30 am 6.32 ft 3230 cfs
Wed11/20 04:25 am 6.31 ft 3217 cfs
Wed11/20 04:20 am 6.32 ft 3230 cfs
Wed11/20 04:15 am 6.32 ft 3230 cfs
Wed11/20 04:10 am 6.32 ft 3230 cfs

Latest Forecasts

Currently Forecasted Readings:
Wed11/20 10:00 am 5.98 ft 2815 cfs
Wed11/20 04:00 pm 5.64 ft 2433 cfs
Wed11/20 10:00 pm 5.34 ft 2123 cfs
Thu11/21 04:00 am 5.13 ft 1921 cfs
Thu11/21 10:00 am 5.01 ft 1805 cfs
Thu11/21 04:00 pm 4.91 ft 1717 cfs
Thu11/21 10:00 pm 4.83 ft 1647 cfs
Fri11/22 04:00 am 4.76 ft 1588 cfs
Fri11/22 10:00 am 4.71 ft 1540 cfs
Fri11/22 04:00 pm 4.66 ft 1499 cfs
Fri11/22 10:00 pm 4.62 ft 1465 cfs
Sat11/23 04:00 am 4.54 ft 1406 cfs
Sat11/23 10:00 am 4.47 ft 1353 cfs
Sat11/23 04:00 pm 4.42 ft 1307 cfs
Sat11/23 10:00 pm 4.48 ft 1357 cfs
Sun11/24 04:00 am 5.59 ft 2382 cfs
Sun11/24 10:00 am 7.54 ft 4984 cfs
Sun11/24 04:00 pm 8.74 ft 7144 cfs
Sun11/24 10:00 pm 8.61 ft 6885 cfs
Mon11/25 04:00 am 7.83 ft 5465 cfs
Mon11/25 10:00 am 7.14 ft 4366 cfs
Mon11/25 04:00 pm 6.65 ft 3660 cfs
Mon11/25 10:00 pm 6.33 ft 3248 cfs
Tue11/26 04:00 am 6.12 ft 2981 cfs
Tue11/26 10:00 am 5.94 ft 2764 cfs
Tue11/26 04:00 pm 5.86 ft 2680 cfs
Tue11/26 10:00 pm 5.95 ft 2779 cfs
Wed11/27 04:00 am 5.99 ft 2830 cfs
Wed11/27 10:00 am 5.87 ft 2684 cfs
Wed11/27 04:00 pm 5.67 ft 2466 cfs
Wed11/27 10:00 pm 5.55 ft 2338 cfs
Thu11/28 04:00 am 5.49 ft 2269 cfs
Thu11/28 10:00 am 5.34 ft 2126 cfs
Thu11/28 04:00 pm 5.17 ft 1956 cfs
Thu11/28 10:00 pm 5.06 ft 1854 cfs
Fri11/29 04:00 am 4.99 ft 1786 cfs
Fri11/29 10:00 am 4.9 ft 1710 cfs
Fri11/29 04:00 pm 4.8 ft 1621 cfs
Fri11/29 10:00 pm 4.71 ft 1540 cfs
Sat11/30 04:00 am 4.63 ft 1480 cfs

Snoqualmie River flood gauge data supplied by the
National Weather Service Northwest River Forecast Center.

Sign up for Floodzilla alerts.